Cosco Kaohsiung — VREM3 — position and weather

sailwx.info

Track history (hours):
 
Tides and Currents Weather Stations Pressure Air Temp Water Temp Dewpoint Dewpoint Depression Visibility Wind Speed Wind Dir Waves Ship Positions

Cosco Kaohsiung

Last reported at 2017-Mar-28 15:17 UTC. Time now 2017-Mar-29 17:01 UTC.
Position N 37°47' E 016°02'.

Length 349 m; draft 10.5 m.

Type: Ship (hazmat cat A). MMSI: 477136800.

Date/timePositionNaut miles runAvg speedWind from/ knotsBaromVisibWave heightAir tempDewpointWater temp
2017-Mar-28 15:17N 37°47' E 016°02'1212.3
2017-Mar-28 14:17N 37°52' E 015°47'912.4
2017-Mar-28 13:33N 37°57' E 015°38'1413.9
2017-Mar-28 12:33N 38°11' E 015°36'1312.7
2017-Mar-28 11:33N 38°23' E 015°33'1918.5
2017-Mar-28 10:33N 38°36' E 015°16'1817.7
2017-Mar-28 09:33N 38°49' E 015°00'35912.7
2017-Mar-27 05:10N 43°09' E 009°32'813.4
2017-Mar-27 04:33N 43°16' E 009°27'1312.9
2017-Mar-27 03:33N 43°28' E 009°19'1313.2
2017-Mar-27 02:33N 43°40' E 009°11'1313.5
2017-Mar-27 01:33N 43°52' E 009°03'1313.4
2017-Mar-27 00:33N 44°04' E 008°54'1313.2
2017-Mar-26 23:33N 44°16' E 008°46'9 9.4
2017-Mar-26 22:33N 44°25' E 008°46'1 0.6
2017-Mar-26 21:32N 44°25' E 008°47'0 0.0
2017-Mar-26 20:32N 44°25' E 008°47'0 0.0
2017-Mar-26 19:32N 44°25' E 008°47'0 0.0
2017-Mar-26 18:32N 44°25' E 008°47'0 0.0
2017-Mar-26 17:32N 44°25' E 008°47'0 0.0
2017-Mar-26 16:32N 44°25' E 008°47'0 0.0
2017-Mar-26 15:32N 44°25' E 008°47'0 0.0
2017-Mar-26 14:32N 44°25' E 008°47'0 0.0
2017-Mar-26 13:32N 44°25' E 008°47'0 0.0
2017-Mar-26 12:29N 44°25' E 008°47'0 0.0
2017-Mar-26 11:29N 44°25' E 008°47'0 0.0
2017-Mar-26 10:32N 44°25' E 008°47'0 0.0
2017-Mar-26 09:32N 44°25' E 008°47'0 0.0
2017-Mar-26 08:32N 44°25' E 008°47'0 0.0
2017-Mar-26 07:32N 44°25' E 008°47'0 0.0
2017-Mar-26 06:32N 44°25' E 008°47'0 0.0
2017-Mar-26 05:32N 44°25' E 008°47'0 0.0
2017-Mar-26 04:32N 44°25' E 008°47'0 0.0
2017-Mar-26 03:32N 44°25' E 008°47'0 0.0
2017-Mar-26 02:32N 44°25' E 008°47'0 0.0
2017-Mar-26 01:32N 44°25' E 008°47'0 0.0
2017-Mar-26 00:32N 44°25' E 008°47'0 0.0
2017-Mar-25 23:32N 44°25' E 008°47'0 0.0
2017-Mar-25 22:32N 44°25' E 008°47'0 0.0
2017-Mar-25 21:32N 44°25' E 008°47'0 0.0
2017-Mar-25 20:32N 44°25' E 008°47'0 0.0
2017-Mar-25 19:32N 44°25' E 008°47'0 0.0
2017-Mar-25 18:32N 44°25' E 008°47'0 0.0
2017-Mar-25 17:32N 44°25' E 008°47'1 0.9
2017-Mar-25 16:33N 44°25' E 008°46'5 4.5
2017-Mar-25 15:33N 44°21' E 008°44'3 2.7
2017-Mar-25 14:33N 44°19' E 008°45'6 6.1
2017-Mar-25 13:33N 44°13' E 008°49'1312.7
2017-Mar-25 12:33N 44°02' E 008°57'1312.8
2017-Mar-25 11:33N 43°50' E 009°05'1312.8
2017-Mar-25 10:33N 43°39' E 009°14'1313.2
2017-Mar-25 09:33N 43°27' E 009°22'1313.0
2017-Mar-25 08:33N 43°16' E 009°30'1616.0
2017-Mar-25 07:33N 43°01' E 009°39'1918.7
2017-Mar-25 06:33N 42°43' E 009°46'1918.6
2017-Mar-25 05:33N 42°26' E 009°56'1818.1
2017-Mar-25 04:33N 42°12' E 010°12'1918.5
2017-Mar-25 03:33N 41°59' E 010°30'2018.3
2017-Mar-25 02:28N 41°46' E 010°50'15118.3
2017-Mar-24 18:12N 40°03' E 013°17'1218.2
2017-Mar-24 17:33N 39°55' E 013°28'1818.4
2017-Mar-24 16:33N 39°43' E 013°45'1918.2
2017-Mar-24 15:32N 39°30' E 014°03'1818.1
2017-Mar-24 14:33N 39°18' E 014°20'1818.4
2017-Mar-24 13:33N 39°05' E 014°37'2019.0
2017-Mar-24 12:31N 38°52' E 014°56'1818.2
2017-Mar-24 11:33N 38°40' E 015°12'1818.1
2017-Mar-24 10:33N 38°27' E 015°29'1515.2
2017-Mar-24 09:33N 38°16' E 015°41'1414.5
2017-Mar-24 08:33N 38°02' E 015°36'1716.9
2017-Mar-24 07:32N 37°49' E 015°51'5217.4
2017-Mar-24 04:33N 37°35' E 016°54'1817.7
2017-Mar-24 03:33N 37°31' E 017°16'16318.0
2017-Mar-23 18:29N 36°48' E 020°33'15913.3
2017-Mar-23 06:31N 37°39' E 023°42'1717.3
2017-Mar-23 05:33N 37°55' E 023°37'3 2.9
2017-Mar-23 04:32N 37°57' E 023°35'0 0.0
2017-Mar-23 03:32N 37°57' E 023°35'0 0.0
2017-Mar-23 02:32N 37°57' E 023°35'0 0.0
2017-Mar-23 01:32N 37°57' E 023°35'0 0.0
2017-Mar-23 00:32N 37°57' E 023°35'0 0.0
2017-Mar-22 23:32N 37°57' E 023°35'0 0.0
2017-Mar-22 22:32N 37°57' E 023°35'0 0.0
2017-Mar-22 21:32N 37°57' E 023°35'0 0.0
2017-Mar-22 20:23N 37°57' E 023°35'0 0.0
2017-Mar-22 19:32N 37°57' E 023°35'0 0.0
2017-Mar-22 18:29N 37°57' E 023°35'0 0.0
2017-Mar-22 17:29N 37°57' E 023°35'0 0.0
2017-Mar-22 16:32N 37°57' E 023°35'0 0.0
2017-Mar-22 15:32N 37°57' E 023°35'0 0.0
2017-Mar-22 14:29N 37°57' E 023°35'0 0.0
2017-Mar-22 13:32N 37°57' E 023°35'0 0.0
2017-Mar-22 12:32N 37°57' E 023°35'0 0.0
2017-Mar-22 11:32N 37°57' E 023°35'0 0.0
2017-Mar-22 10:26N 37°57' E 023°35'0 0.0
2017-Mar-22 09:32N 37°57' E 023°35'0 0.0
2017-Mar-22 08:32N 37°57' E 023°35'0 0.0
2017-Mar-22 07:32N 37°57' E 023°35'0 0.0
2017-Mar-22 06:23N 37°57' E 023°35'0 0.1
2017-Mar-22 05:34N 37°57' E 023°35'3 3.0
2017-Mar-22 04:34N 37°54' E 023°36'7 6.6
2017-Mar-22 03:34N 37°49' E 023°40'8 8.0
2017-Mar-22 02:34N 37°42' E 023°45'9 9.5
2017-Mar-22 01:34N 37°35' E 023°53'1111.3
2017-Mar-22 00:34N 37°27' E 024°04'61914.3
2017-Mar-20 05:15N 31°52' E 034°37'0 0.0
2017-Mar-19 09:15N 31°52' E 034°37'  
Track history (hours):
 
Tides and Currents Weather Stations Pressure Air Temp Water Temp Dewpoint Dewpoint Depression Visibility Wind Speed Wind Dir Waves Ship Positions

Cosco Kaohsiung

Last reported at 2017-Mar-28 15:17 UTC. Time now 2017-Mar-29 17:01 UTC.
Position N 37°47' E 016°02'.

Length 349 m; draft 10.5 m.

Type: Ship (hazmat cat A). MMSI: 477136800.

Date/timePositionNaut miles runAvg speedWind from/ knotsBaromVisibWave heightAir tempDewpointWater temp
2017-Mar-28 15:17N 37°47' E 016°02'1212.3
2017-Mar-28 14:17N 37°52' E 015°47'912.4
2017-Mar-28 13:33N 37°57' E 015°38'1413.9
2017-Mar-28 12:33N 38°11' E 015°36'1312.7
2017-Mar-28 11:33N 38°23' E 015°33'1918.5
2017-Mar-28 10:33N 38°36' E 015°16'1817.7
2017-Mar-28 09:33N 38°49' E 015°00'35912.7
2017-Mar-27 05:10N 43°09' E 009°32'813.4
2017-Mar-27 04:33N 43°16' E 009°27'1312.9
2017-Mar-27 03:33N 43°28' E 009°19'1313.2
2017-Mar-27 02:33N 43°40' E 009°11'1313.5
2017-Mar-27 01:33N 43°52' E 009°03'1313.4
2017-Mar-27 00:33N 44°04' E 008°54'1313.2
2017-Mar-26 23:33N 44°16' E 008°46'9 9.4
2017-Mar-26 22:33N 44°25' E 008°46'1 0.6
2017-Mar-26 21:32N 44°25' E 008°47'0 0.0
2017-Mar-26 20:32N 44°25' E 008°47'0 0.0
2017-Mar-26 19:32N 44°25' E 008°47'0 0.0
2017-Mar-26 18:32N 44°25' E 008°47'0 0.0
2017-Mar-26 17:32N 44°25' E 008°47'0 0.0
2017-Mar-26 16:32N 44°25' E 008°47'0 0.0
2017-Mar-26 15:32N 44°25' E 008°47'0 0.0
2017-Mar-26 14:32N 44°25' E 008°47'0 0.0
2017-Mar-26 13:32N 44°25' E 008°47'0 0.0
2017-Mar-26 12:29N 44°25' E 008°47'0 0.0
2017-Mar-26 11:29N 44°25' E 008°47'0 0.0
2017-Mar-26 10:32N 44°25' E 008°47'0 0.0
2017-Mar-26 09:32N 44°25' E 008°47'0 0.0
2017-Mar-26 08:32N 44°25' E 008°47'0 0.0
2017-Mar-26 07:32N 44°25' E 008°47'0 0.0
2017-Mar-26 06:32N 44°25' E 008°47'0 0.0
2017-Mar-26 05:32N 44°25' E 008°47'0 0.0
2017-Mar-26 04:32N 44°25' E 008°47'0 0.0
2017-Mar-26 03:32N 44°25' E 008°47'0 0.0
2017-Mar-26 02:32N 44°25' E 008°47'0 0.0
2017-Mar-26 01:32N 44°25' E 008°47'0 0.0
2017-Mar-26 00:32N 44°25' E 008°47'0 0.0
2017-Mar-25 23:32N 44°25' E 008°47'0 0.0
2017-Mar-25 22:32N 44°25' E 008°47'0 0.0
2017-Mar-25 21:32N 44°25' E 008°47'0 0.0
2017-Mar-25 20:32N 44°25' E 008°47'0 0.0
2017-Mar-25 19:32N 44°25' E 008°47'0 0.0
2017-Mar-25 18:32N 44°25' E 008°47'0 0.0
2017-Mar-25 17:32N 44°25' E 008°47'1 0.9
2017-Mar-25 16:33N 44°25' E 008°46'5 4.5
2017-Mar-25 15:33N 44°21' E 008°44'3 2.7
2017-Mar-25 14:33N 44°19' E 008°45'6 6.1
2017-Mar-25 13:33N 44°13' E 008°49'1312.7
2017-Mar-25 12:33N 44°02' E 008°57'1312.8
2017-Mar-25 11:33N 43°50' E 009°05'1312.8
2017-Mar-25 10:33N 43°39' E 009°14'1313.2
2017-Mar-25 09:33N 43°27' E 009°22'1313.0
2017-Mar-25 08:33N 43°16' E 009°30'1616.0
2017-Mar-25 07:33N 43°01' E 009°39'1918.7
2017-Mar-25 06:33N 42°43' E 009°46'1918.6
2017-Mar-25 05:33N 42°26' E 009°56'1818.1
2017-Mar-25 04:33N 42°12' E 010°12'1918.5
2017-Mar-25 03:33N 41°59' E 010°30'2018.3
2017-Mar-25 02:28N 41°46' E 010°50'15118.3
2017-Mar-24 18:12N 40°03' E 013°17'1218.2
2017-Mar-24 17:33N 39°55' E 013°28'1818.4
2017-Mar-24 16:33N 39°43' E 013°45'1918.2
2017-Mar-24 15:32N 39°30' E 014°03'1818.1
2017-Mar-24 14:33N 39°18' E 014°20'1818.4
2017-Mar-24 13:33N 39°05' E 014°37'2019.0
2017-Mar-24 12:31N 38°52' E 014°56'1818.2
2017-Mar-24 11:33N 38°40' E 015°12'1818.1
2017-Mar-24 10:33N 38°27' E 015°29'1515.2
2017-Mar-24 09:33N 38°16' E 015°41'1414.5
2017-Mar-24 08:33N 38°02' E 015°36'1716.9
2017-Mar-24 07:32N 37°49' E 015°51'5217.4
2017-Mar-24 04:33N 37°35' E 016°54'1817.7
2017-Mar-24 03:33N 37°31' E 017°16'16318.0
2017-Mar-23 18:29N 36°48' E 020°33'15913.3
2017-Mar-23 06:31N 37°39' E 023°42'1717.3
2017-Mar-23 05:33N 37°55' E 023°37'3 2.9
2017-Mar-23 04:32N 37°57' E 023°35'0 0.0
2017-Mar-23 03:32N 37°57' E 023°35'0 0.0
2017-Mar-23 02:32N 37°57' E 023°35'0 0.0
2017-Mar-23 01:32N 37°57' E 023°35'0 0.0
2017-Mar-23 00:32N 37°57' E 023°35'0 0.0
2017-Mar-22 23:32N 37°57' E 023°35'0 0.0
2017-Mar-22 22:32N 37°57' E 023°35'0 0.0
2017-Mar-22 21:32N 37°57' E 023°35'0 0.0
2017-Mar-22 20:23N 37°57' E 023°35'0 0.0
2017-Mar-22 19:32N 37°57' E 023°35'0 0.0
2017-Mar-22 18:29N 37°57' E 023°35'0 0.0
2017-Mar-22 17:29N 37°57' E 023°35'0 0.0
2017-Mar-22 16:32N 37°57' E 023°35'0 0.0
2017-Mar-22 15:32N 37°57' E 023°35'0 0.0
2017-Mar-22 14:29N 37°57' E 023°35'0 0.0
2017-Mar-22 13:32N 37°57' E 023°35'0 0.0
2017-Mar-22 12:32N 37°57' E 023°35'0 0.0
2017-Mar-22 11:32N 37°57' E 023°35'0 0.0
2017-Mar-22 10:26N 37°57' E 023°35'0 0.0
2017-Mar-22 09:32N 37°57' E 023°35'0 0.0
2017-Mar-22 08:32N 37°57' E 023°35'0 0.0
2017-Mar-22 07:32N 37°57' E 023°35'0 0.0
2017-Mar-22 06:23N 37°57' E 023°35'0 0.1
2017-Mar-22 05:34N 37°57' E 023°35'3 3.0
2017-Mar-22 04:34N 37°54' E 023°36'7 6.6
2017-Mar-22 03:34N 37°49' E 023°40'8 8.0
2017-Mar-22 02:34N 37°42' E 023°45'9 9.5
2017-Mar-22 01:34N 37°35' E 023°53'1111.3
2017-Mar-22 00:34N 37°27' E 024°04'61914.3
2017-Mar-20 05:15N 31°52' E 034°37'0 0.0
2017-Mar-19 09:15N 31°52' E 034°37'  

Dump ship's entire track history